sensor_id;sensor_type;location;lat;lon;timestamp;temperature;humidity
83019;DHT22;72834;40.104;18.336;2023-11-22T00:01:51;17.90;99.90
83019;DHT22;72834;40.104;18.336;2023-11-22T00:04:18;17.90;99.90
83019;DHT22;72834;40.104;18.336;2023-11-22T00:06:44;17.90;99.90
83019;DHT22;72834;40.104;18.336;2023-11-22T00:09:10;17.90;99.90
83019;DHT22;72834;40.104;18.336;2023-11-22T00:11:37;17.90;99.90
83019;DHT22;72834;40.104;18.336;2023-11-22T00:14:04;17.80;99.90
83019;DHT22;72834;40.104;18.336;2023-11-22T00:16:31;17.80;99.90
83019;DHT22;72834;40.104;18.336;2023-11-22T00:18:58;17.80;99.90
83019;DHT22;72834;40.104;18.336;2023-11-22T00:21:24;17.80;99.90
83019;DHT22;72834;40.104;18.336;2023-11-22T00:23:51;17.80;99.90
83019;DHT22;72834;40.104;18.336;2023-11-22T00:26:17;17.80;99.90
83019;DHT22;72834;40.104;18.336;2023-11-22T00:28:51;17.80;99.90
83019;DHT22;72834;40.104;18.336;2023-11-22T00:31:20;17.80;99.90
83019;DHT22;72834;40.104;18.336;2023-11-22T00:33:46;17.80;99.90
83019;DHT22;72834;40.104;18.336;2023-11-22T00:36:13;17.80;99.90
83019;DHT22;72834;40.104;18.336;2023-11-22T00:38:39;17.90;99.90
83019;DHT22;72834;40.104;18.336;2023-11-22T00:41:07;17.90;99.90
83019;DHT22;72834;40.104;18.336;2023-11-22T00:43:34;17.90;99.90
83019;DHT22;72834;40.104;18.336;2023-11-22T00:46:00;17.90;99.90
83019;DHT22;72834;40.104;18.336;2023-11-22T00:48:27;17.90;99.90
83019;DHT22;72834;40.104;18.336;2023-11-22T00:50:54;17.90;99.90
83019;DHT22;72834;40.104;18.336;2023-11-22T00:53:20;17.90;99.90
83019;DHT22;72834;40.104;18.336;2023-11-22T00:55:47;17.90;99.90
83019;DHT22;72834;40.104;18.336;2023-11-22T00:58:13;18.00;99.90
83019;DHT22;72834;40.104;18.336;2023-11-22T01:00:40;17.90;99.90
83019;DHT22;72834;40.104;18.336;2023-11-22T01:03:06;17.90;99.90
83019;DHT22;72834;40.104;18.336;2023-11-22T01:05:38;18.00;99.90
83019;DHT22;72834;40.104;18.336;2023-11-22T01:08:04;18.00;99.90
83019;DHT22;72834;40.104;18.336;2023-11-22T01:10:31;18.00;99.90
83019;DHT22;72834;40.104;18.336;2023-11-22T01:12:57;18.00;99.90
83019;DHT22;72834;40.104;18.336;2023-11-22T01:15:24;18.00;99.90
83019;DHT22;72834;40.104;18.336;2023-11-22T01:17:51;18.00;99.90
83019;DHT22;72834;40.104;18.336;2023-11-22T01:20:17;18.00;99.90
83019;DHT22;72834;40.104;18.336;2023-11-22T01:22:44;18.00;99.90
83019;DHT22;72834;40.104;18.336;2023-11-22T01:25:11;18.00;99.90
83019;DHT22;72834;40.104;18.336;2023-11-22T01:27:37;18.00;99.90
83019;DHT22;72834;40.104;18.336;2023-11-22T01:30:05;18.00;99.90
83019;DHT22;72834;40.104;18.336;2023-11-22T01:32:33;18.00;99.90
83019;DHT22;72834;40.104;18.336;2023-11-22T01:35:03;18.00;99.90
83019;DHT22;72834;40.104;18.336;2023-11-22T01:37:32;18.00;99.90
83019;DHT22;72834;40.104;18.336;2023-11-22T01:39:58;18.00;99.90
83019;DHT22;72834;40.104;18.336;2023-11-22T01:42:25;18.00;99.90
83019;DHT22;72834;40.104;18.336;2023-11-22T01:44:51;18.00;99.90
83019;DHT22;72834;40.104;18.336;2023-11-22T01:47:19;18.00;99.90
83019;DHT22;72834;40.104;18.336;2023-11-22T01:49:46;17.90;99.90
83019;DHT22;72834;40.104;18.336;2023-11-22T01:52:13;18.00;99.90
83019;DHT22;72834;40.104;18.336;2023-11-22T01:54:40;17.90;99.90
83019;DHT22;72834;40.104;18.336;2023-11-22T01:57:09;17.90;99.90
83019;DHT22;72834;40.104;18.336;2023-11-22T01:59:36;17.90;99.90
83019;DHT22;72834;40.104;18.336;2023-11-22T02:02:04;17.90;99.90
83019;DHT22;72834;40.104;18.336;2023-11-22T02:04:30;17.90;99.90
83019;DHT22;72834;40.104;18.336;2023-11-22T02:06:57;17.90;99.90
83019;DHT22;72834;40.104;18.336;2023-11-22T02:09:23;17.90;99.90
83019;DHT22;72834;40.104;18.336;2023-11-22T02:11:51;17.90;99.90
83019;DHT22;72834;40.104;18.336;2023-11-22T02:14:18;17.90;99.90
83019;DHT22;72834;40.104;18.336;2023-11-22T02:16:47;17.90;99.90
83019;DHT22;72834;40.104;18.336;2023-11-22T02:19:18;17.90;99.90
83019;DHT22;72834;40.104;18.336;2023-11-22T02:21:45;17.90;99.90
83019;DHT22;72834;40.104;18.336;2023-11-22T02:24:11;17.90;99.90
83019;DHT22;72834;40.104;18.336;2023-11-22T02:26:38;17.90;99.90
83019;DHT22;72834;40.104;18.336;2023-11-22T02:29:05;17.90;99.90
83019;DHT22;72834;40.104;18.336;2023-11-22T02:31:31;17.90;99.90
83019;DHT22;72834;40.104;18.336;2023-11-22T02:34:00;17.90;99.90
83019;DHT22;72834;40.104;18.336;2023-11-22T02:36:26;17.90;99.90
83019;DHT22;72834;40.104;18.336;2023-11-22T02:38:53;17.80;99.90
83019;DHT22;72834;40.104;18.336;2023-11-22T02:41:21;17.90;99.90
83019;DHT22;72834;40.104;18.336;2023-11-22T02:43:48;17.90;99.90
83019;DHT22;72834;40.104;18.336;2023-11-22T02:46:14;17.90;99.90
83019;DHT22;72834;40.104;18.336;2023-11-22T02:48:41;17.80;99.90
83019;DHT22;72834;40.104;18.336;2023-11-22T02:51:07;17.80;99.90
83019;DHT22;72834;40.104;18.336;2023-11-22T02:53:34;17.80;99.90
83019;DHT22;72834;40.104;18.336;2023-11-22T02:56:01;17.80;99.90
83019;DHT22;72834;40.104;18.336;2023-11-22T02:58:30;17.80;99.90
83019;DHT22;72834;40.104;18.336;2023-11-22T03:00:57;17.80;99.90
83019;DHT22;72834;40.104;18.336;2023-11-22T03:03:24;17.80;99.90
83019;DHT22;72834;40.104;18.336;2023-11-22T03:05:50;17.80;99.90
83019;DHT22;72834;40.104;18.336;2023-11-22T03:08:17;17.80;99.90
83019;DHT22;72834;40.104;18.336;2023-11-22T03:10:43;17.80;99.90
83019;DHT22;72834;40.104;18.336;2023-11-22T03:13:10;17.80;99.90
83019;DHT22;72834;40.104;18.336;2023-11-22T03:15:36;17.80;99.90
83019;DHT22;72834;40.104;18.336;2023-11-22T03:18:03;17.70;99.90
83019;DHT22;72834;40.104;18.336;2023-11-22T03:20:33;17.70;99.90
83019;DHT22;72834;40.104;18.336;2023-11-22T03:22:59;17.70;99.90
83019;DHT22;72834;40.104;18.336;2023-11-22T03:25:28;17.70;99.90
83019;DHT22;72834;40.104;18.336;2023-11-22T03:27:55;17.70;99.90
83019;DHT22;72834;40.104;18.336;2023-11-22T03:30:22;17.70;99.90
83019;DHT22;72834;40.104;18.336;2023-11-22T03:32:49;17.70;99.90
83019;DHT22;72834;40.104;18.336;2023-11-22T03:35:17;17.60;99.90
83019;DHT22;72834;40.104;18.336;2023-11-22T03:37:44;17.60;99.90
83019;DHT22;72834;40.104;18.336;2023-11-22T03:40:10;17.60;99.90
83019;DHT22;72834;40.104;18.336;2023-11-22T03:42:38;17.60;99.90
83019;DHT22;72834;40.104;18.336;2023-11-22T03:45:06;17.60;99.90
83019;DHT22;72834;40.104;18.336;2023-11-22T03:47:32;17.60;99.90
83019;DHT22;72834;40.104;18.336;2023-11-22T03:49:59;17.60;99.90
83019;DHT22;72834;40.104;18.336;2023-11-22T03:52:26;17.60;99.90
83019;DHT22;72834;40.104;18.336;2023-11-22T03:54:55;17.60;99.90
83019;DHT22;72834;40.104;18.336;2023-11-22T03:57:23;17.60;99.90
83019;DHT22;72834;40.104;18.336;2023-11-22T03:59:50;17.60;99.90
83019;DHT22;72834;40.104;18.336;2023-11-22T04:02:16;17.50;99.90
83019;DHT22;72834;40.104;18.336;2023-11-22T04:04:43;17.50;99.90
83019;DHT22;72834;40.104;18.336;2023-11-22T04:07:11;17.50;99.90
83019;DHT22;72834;40.104;18.336;2023-11-22T04:09:37;17.50;99.90
83019;DHT22;72834;40.104;18.336;2023-11-22T04:12:04;17.50;99.90
83019;DHT22;72834;40.104;18.336;2023-11-22T04:14:31;17.60;99.90
83019;DHT22;72834;40.104;18.336;2023-11-22T04:16:57;17.60;99.90
83019;DHT22;72834;40.104;18.336;2023-11-22T04:19:24;17.50;99.90
83019;DHT22;72834;40.104;18.336;2023-11-22T04:21:50;17.50;99.90
83019;DHT22;72834;40.104;18.336;2023-11-22T04:24:17;17.50;99.90
83019;DHT22;72834;40.104;18.336;2023-11-22T04:26:43;17.50;99.90
83019;DHT22;72834;40.104;18.336;2023-11-22T04:29:10;17.50;99.90
83019;DHT22;72834;40.104;18.336;2023-11-22T04:31:36;17.50;99.90
83019;DHT22;72834;40.104;18.336;2023-11-22T04:34:03;17.50;99.90
83019;DHT22;72834;40.104;18.336;2023-11-22T04:36:30;17.50;99.90
83019;DHT22;72834;40.104;18.336;2023-11-22T04:38:56;17.50;99.90
83019;DHT22;72834;40.104;18.336;2023-11-22T04:41:23;17.50;99.90
83019;DHT22;72834;40.104;18.336;2023-11-22T04:43:51;17.50;99.90
83019;DHT22;72834;40.104;18.336;2023-11-22T04:46:17;17.50;99.90
83019;DHT22;72834;40.104;18.336;2023-11-22T04:48:44;17.50;99.90
83019;DHT22;72834;40.104;18.336;2023-11-22T04:51:11;17.50;99.90
83019;DHT22;72834;40.104;18.336;2023-11-22T04:53:37;17.50;99.90
83019;DHT22;72834;40.104;18.336;2023-11-22T04:56:04;17.50;99.90
83019;DHT22;72834;40.104;18.336;2023-11-22T04:58:33;17.50;99.90
83019;DHT22;72834;40.104;18.336;2023-11-22T05:00:59;17.50;99.90
83019;DHT22;72834;40.104;18.336;2023-11-22T05:03:27;17.50;99.90
83019;DHT22;72834;40.104;18.336;2023-11-22T05:05:54;17.50;99.90
83019;DHT22;72834;40.104;18.336;2023-11-22T05:08:20;17.50;99.90
83019;DHT22;72834;40.104;18.336;2023-11-22T05:10:47;17.50;99.90
83019;DHT22;72834;40.104;18.336;2023-11-22T05:13:13;17.50;99.90
83019;DHT22;72834;40.104;18.336;2023-11-22T05:15:40;17.50;99.90
83019;DHT22;72834;40.104;18.336;2023-11-22T05:18:06;17.40;99.90
83019;DHT22;72834;40.104;18.336;2023-11-22T05:20:33;17.50;99.90
83019;DHT22;72834;40.104;18.336;2023-11-22T05:22:59;17.40;99.90
83019;DHT22;72834;40.104;18.336;2023-11-22T05:25:27;17.40;99.90
83019;DHT22;72834;40.104;18.336;2023-11-22T05:27:53;17.40;99.90
83019;DHT22;72834;40.104;18.336;2023-11-22T05:30:20;17.40;99.90
83019;DHT22;72834;40.104;18.336;2023-11-22T05:32:49;17.40;99.90
83019;DHT22;72834;40.104;18.336;2023-11-22T05:35:15;17.40;99.90
83019;DHT22;72834;40.104;18.336;2023-11-22T05:37:42;17.40;99.90
83019;DHT22;72834;40.104;18.336;2023-11-22T05:40:09;17.40;99.90
83019;DHT22;72834;40.104;18.336;2023-11-22T05:42:36;17.40;99.90
83019;DHT22;72834;40.104;18.336;2023-11-22T05:45:03;17.40;99.90
83019;DHT22;72834;40.104;18.336;2023-11-22T05:47:32;17.40;99.90
83019;DHT22;72834;40.104;18.336;2023-11-22T05:49:58;17.40;99.90
83019;DHT22;72834;40.104;18.336;2023-11-22T05:52:25;17.40;99.90
83019;DHT22;72834;40.104;18.336;2023-11-22T05:54:52;17.40;99.90
83019;DHT22;72834;40.104;18.336;2023-11-22T05:57:18;17.40;99.90
83019;DHT22;72834;40.104;18.336;2023-11-22T05:59:46;17.40;99.90
83019;DHT22;72834;40.104;18.336;2023-11-22T06:02:12;17.50;99.90
83019;DHT22;72834;40.104;18.336;2023-11-22T06:04:39;17.40;99.90
83019;DHT22;72834;40.104;18.336;2023-11-22T06:07:06;17.50;99.90
83019;DHT22;72834;40.104;18.336;2023-11-22T06:09:32;17.50;99.90
83019;DHT22;72834;40.104;18.336;2023-11-22T06:12:00;17.50;99.90
83019;DHT22;72834;40.104;18.336;2023-11-22T06:14:26;17.50;99.90
83019;DHT22;72834;40.104;18.336;2023-11-22T06:16:53;17.50;99.90
83019;DHT22;72834;40.104;18.336;2023-11-22T06:19:19;17.50;99.90
83019;DHT22;72834;40.104;18.336;2023-11-22T06:21:46;17.50;99.90
83019;DHT22;72834;40.104;18.336;2023-11-22T06:24:12;17.50;99.90
83019;DHT22;72834;40.104;18.336;2023-11-22T06:26:44;17.50;99.90
83019;DHT22;72834;40.104;18.336;2023-11-22T06:29:13;17.50;99.90
83019;DHT22;72834;40.104;18.336;2023-11-22T06:31:40;17.60;99.90
83019;DHT22;72834;40.104;18.336;2023-11-22T06:34:08;17.60;99.90
83019;DHT22;72834;40.104;18.336;2023-11-22T06:36:34;17.70;99.90
83019;DHT22;72834;40.104;18.336;2023-11-22T06:39:01;17.70;99.90
83019;DHT22;72834;40.104;18.336;2023-11-22T06:41:27;17.70;99.90
83019;DHT22;72834;40.104;18.336;2023-11-22T06:43:54;17.80;99.90
83019;DHT22;72834;40.104;18.336;2023-11-22T06:46:21;17.80;99.90
83019;DHT22;72834;40.104;18.336;2023-11-22T06:48:49;17.90;99.90
83019;DHT22;72834;40.104;18.336;2023-11-22T06:51:16;17.90;99.90
83019;DHT22;72834;40.104;18.336;2023-11-22T06:53:45;17.90;99.90
83019;DHT22;72834;40.104;18.336;2023-11-22T06:56:12;17.90;99.90
83019;DHT22;72834;40.104;18.336;2023-11-22T06:58:39;17.90;99.90
83019;DHT22;72834;40.104;18.336;2023-11-22T07:01:06;18.00;99.90
83019;DHT22;72834;40.104;18.336;2023-11-22T07:03:33;18.00;99.90
83019;DHT22;72834;40.104;18.336;2023-11-22T07:05:59;18.00;99.90
83019;DHT22;72834;40.104;18.336;2023-11-22T07:08:26;18.10;99.90
83019;DHT22;72834;40.104;18.336;2023-11-22T07:10:54;18.10;99.90
83019;DHT22;72834;40.104;18.336;2023-11-22T07:13:23;18.10;99.90
83019;DHT22;72834;40.104;18.336;2023-11-22T07:15:51;18.20;99.90
83019;DHT22;72834;40.104;18.336;2023-11-22T07:18:18;18.20;99.90
83019;DHT22;72834;40.104;18.336;2023-11-22T07:20:44;18.20;99.90
83019;DHT22;72834;40.104;18.336;2023-11-22T07:23:11;18.30;99.90
83019;DHT22;72834;40.104;18.336;2023-11-22T07:25:40;18.30;99.90
83019;DHT22;72834;40.104;18.336;2023-11-22T07:28:07;18.30;99.90
83019;DHT22;72834;40.104;18.336;2023-11-22T07:30:35;18.40;99.90
83019;DHT22;72834;40.104;18.336;2023-11-22T07:33:04;18.40;99.90
83019;DHT22;72834;40.104;18.336;2023-11-22T07:35:32;18.40;99.90
83019;DHT22;72834;40.104;18.336;2023-11-22T07:37:59;18.40;99.90
83019;DHT22;72834;40.104;18.336;2023-11-22T07:40:25;18.50;99.90
83019;DHT22;72834;40.104;18.336;2023-11-22T07:42:52;18.50;99.90
83019;DHT22;72834;40.104;18.336;2023-11-22T07:45:18;18.60;99.90
83019;DHT22;72834;40.104;18.336;2023-11-22T07:47:45;18.60;99.90
83019;DHT22;72834;40.104;18.336;2023-11-22T07:50:13;18.60;99.90
83019;DHT22;72834;40.104;18.336;2023-11-22T07:52:39;18.70;99.90
83019;DHT22;72834;40.104;18.336;2023-11-22T07:55:08;18.70;99.90
83019;DHT22;72834;40.104;18.336;2023-11-22T07:57:37;18.80;99.90
83019;DHT22;72834;40.104;18.336;2023-11-22T08:00:07;18.80;99.90
83019;DHT22;72834;40.104;18.336;2023-11-22T08:02:40;18.80;99.90
83019;DHT22;72834;40.104;18.336;2023-11-22T08:05:09;18.90;99.90
83019;DHT22;72834;40.104;18.336;2023-11-22T08:07:39;18.90;99.90
83019;DHT22;72834;40.104;18.336;2023-11-22T08:10:10;18.90;99.90
83019;DHT22;72834;40.104;18.336;2023-11-22T08:12:46;19.00;99.90
83019;DHT22;72834;40.104;18.336;2023-11-22T08:15:14;18.90;99.90
83019;DHT22;72834;40.104;18.336;2023-11-22T08:17:42;18.90;99.90
83019;DHT22;72834;40.104;18.336;2023-11-22T08:20:12;18.90;99.90
83019;DHT22;72834;40.104;18.336;2023-11-22T08:22:44;18.90;99.90
83019;DHT22;72834;40.104;18.336;2023-11-22T08:25:20;18.90;99.90
83019;DHT22;72834;40.104;18.336;2023-11-22T08:27:46;18.90;99.90
83019;DHT22;72834;40.104;18.336;2023-11-22T08:30:13;18.90;99.90
83019;DHT22;72834;40.104;18.336;2023-11-22T08:32:48;18.90;99.90
83019;DHT22;72834;40.104;18.336;2023-11-22T08:35:20;18.80;99.90
83019;DHT22;72834;40.104;18.336;2023-11-22T08:37:48;18.80;99.90
83019;DHT22;72834;40.104;18.336;2023-11-22T08:40:16;18.80;99.90
83019;DHT22;72834;40.104;18.336;2023-11-22T08:42:47;18.80;99.90
83019;DHT22;72834;40.104;18.336;2023-11-22T08:45:14;18.80;99.90
83019;DHT22;72834;40.104;18.336;2023-11-22T08:47:40;18.80;99.90
83019;DHT22;72834;40.104;18.336;2023-11-22T08:50:08;18.80;99.90
83019;DHT22;72834;40.104;18.336;2023-11-22T08:52:38;18.90;99.90
83019;DHT22;72834;40.104;18.336;2023-11-22T08:55:06;19.00;99.90
83019;DHT22;72834;40.104;18.336;2023-11-22T08:57:37;19.00;99.90
83019;DHT22;72834;40.104;18.336;2023-11-22T09:00:04;19.10;99.90
83019;DHT22;72834;40.104;18.336;2023-11-22T09:02:41;19.10;99.90
83019;DHT22;72834;40.104;18.336;2023-11-22T09:05:07;19.20;99.90
83019;DHT22;72834;40.104;18.336;2023-11-22T09:07:35;19.20;99.90
83019;DHT22;72834;40.104;18.336;2023-11-22T09:10:05;19.30;99.90
83019;DHT22;72834;40.104;18.336;2023-11-22T09:12:40;19.30;99.90
83019;DHT22;72834;40.104;18.336;2023-11-22T09:15:11;19.40;99.90
83019;DHT22;72834;40.104;18.336;2023-11-22T09:17:40;19.40;99.90
83019;DHT22;72834;40.104;18.336;2023-11-22T09:20:15;19.40;99.90
83019;DHT22;72834;40.104;18.336;2023-11-22T09:25:26;19.40;99.90
83019;DHT22;72834;40.104;18.336;2023-11-22T09:27:55;19.50;99.90
83019;DHT22;72834;40.104;18.336;2023-11-22T09:30:30;19.50;99.90
83019;DHT22;72834;40.104;18.336;2023-11-22T09:33:13;19.50;99.90
83019;DHT22;72834;40.104;18.336;2023-11-22T09:35:45;19.60;99.90
83019;DHT22;72834;40.104;18.336;2023-11-22T09:38:13;19.60;99.90
83019;DHT22;72834;40.104;18.336;2023-11-22T09:40:42;19.70;99.90
83019;DHT22;72834;40.104;18.336;2023-11-22T09:43:10;19.80;99.90
83019;DHT22;72834;40.104;18.336;2023-11-22T09:45:36;19.80;99.90
83019;DHT22;72834;40.104;18.336;2023-11-22T09:48:17;19.90;99.90
83019;DHT22;72834;40.104;18.336;2023-11-22T09:51:15;20.00;99.90
83019;DHT22;72834;40.104;18.336;2023-11-22T09:53:58;20.00;99.90
83019;DHT22;72834;40.104;18.336;2023-11-22T09:56:27;20.10;99.90
83019;DHT22;72834;40.104;18.336;2023-11-22T09:58:59;20.20;99.90
83019;DHT22;72834;40.104;18.336;2023-11-22T10:01:30;20.20;99.90
83019;DHT22;72834;40.104;18.336;2023-11-22T10:04:03;20.20;99.90
83019;DHT22;72834;40.104;18.336;2023-11-22T10:06:33;20.20;99.90
83019;DHT22;72834;40.104;18.336;2023-11-22T10:09:03;20.30;99.90
83019;DHT22;72834;40.104;18.336;2023-11-22T10:11:37;20.20;99.90
83019;DHT22;72834;40.104;18.336;2023-11-22T10:14:06;20.30;99.90
83019;DHT22;72834;40.104;18.336;2023-11-22T10:16:32;20.30;99.90
83019;DHT22;72834;40.104;18.336;2023-11-22T10:19:00;20.30;99.90
83019;DHT22;72834;40.104;18.336;2023-11-22T10:21:28;20.30;99.90
83019;DHT22;72834;40.104;18.336;2023-11-22T10:23:57;20.30;99.90
83019;DHT22;72834;40.104;18.336;2023-11-22T10:26:28;20.40;99.90
83019;DHT22;72834;40.104;18.336;2023-11-22T10:28:57;20.40;99.90
83019;DHT22;72834;40.104;18.336;2023-11-22T10:31:25;20.40;99.90
83019;DHT22;72834;40.104;18.336;2023-11-22T10:33:53;20.40;99.90
83019;DHT22;72834;40.104;18.336;2023-11-22T10:36:22;20.40;99.90
83019;DHT22;72834;40.104;18.336;2023-11-22T10:38:50;20.40;99.90
83019;DHT22;72834;40.104;18.336;2023-11-22T10:41:20;20.50;99.90
83019;DHT22;72834;40.104;18.336;2023-11-22T10:43:53;20.50;99.90
83019;DHT22;72834;40.104;18.336;2023-11-22T10:46:27;20.40;99.90
83019;DHT22;72834;40.104;18.336;2023-11-22T10:48:56;20.50;99.90
83019;DHT22;72834;40.104;18.336;2023-11-22T10:51:30;20.50;99.90
83019;DHT22;72834;40.104;18.336;2023-11-22T10:53:58;20.50;99.90
83019;DHT22;72834;40.104;18.336;2023-11-22T10:56:27;20.40;99.90
83019;DHT22;72834;40.104;18.336;2023-11-22T10:58:57;20.40;99.90
83019;DHT22;72834;40.104;18.336;2023-11-22T11:01:26;20.50;99.90
83019;DHT22;72834;40.104;18.336;2023-11-22T11:04:02;20.50;99.90
83019;DHT22;72834;40.104;18.336;2023-11-22T11:06:34;20.40;99.90
83019;DHT22;72834;40.104;18.336;2023-11-22T11:09:09;20.40;99.90
83019;DHT22;72834;40.104;18.336;2023-11-22T11:11:43;20.30;99.90
83019;DHT22;72834;40.104;18.336;2023-11-22T11:14:10;20.30;99.90
83019;DHT22;72834;40.104;18.336;2023-11-22T11:16:39;20.20;99.90
83019;DHT22;72834;40.104;18.336;2023-11-22T11:19:15;20.20;99.90
83019;DHT22;72834;40.104;18.336;2023-11-22T11:21:43;20.20;99.90
83019;DHT22;72834;40.104;18.336;2023-11-22T11:24:10;20.10;99.90
83019;DHT22;72834;40.104;18.336;2023-11-22T11:26:37;20.10;99.90
83019;DHT22;72834;40.104;18.336;2023-11-22T11:29:04;20.10;99.90
83019;DHT22;72834;40.104;18.336;2023-11-22T11:31:32;20.10;99.90
83019;DHT22;72834;40.104;18.336;2023-11-22T11:34:05;20.00;99.90
83019;DHT22;72834;40.104;18.336;2023-11-22T11:36:32;20.00;99.90
83019;DHT22;72834;40.104;18.336;2023-11-22T11:39:01;19.90;99.90
83019;DHT22;72834;40.104;18.336;2023-11-22T11:41:31;19.90;99.90
83019;DHT22;72834;40.104;18.336;2023-11-22T11:44:02;19.90;99.90
83019;DHT22;72834;40.104;18.336;2023-11-22T11:46:30;19.90;99.90
83019;DHT22;72834;40.104;18.336;2023-11-22T11:48:57;19.90;99.90
83019;DHT22;72834;40.104;18.336;2023-11-22T11:51:25;20.00;99.90
83019;DHT22;72834;40.104;18.336;2023-11-22T11:53:52;20.00;99.90
83019;DHT22;72834;40.104;18.336;2023-11-22T11:56:20;20.00;99.90
83019;DHT22;72834;40.104;18.336;2023-11-22T11:58:48;19.90;99.90
83019;DHT22;72834;40.104;18.336;2023-11-22T12:01:17;19.60;99.90
83019;DHT22;72834;40.104;18.336;2023-11-22T12:03:44;19.40;99.90
83019;DHT22;72834;40.104;18.336;2023-11-22T12:06:10;19.30;99.90
83019;DHT22;72834;40.104;18.336;2023-11-22T12:08:37;19.20;99.90
83019;DHT22;72834;40.104;18.336;2023-11-22T12:11:05;19.10;99.90
83019;DHT22;72834;40.104;18.336;2023-11-22T12:13:35;19.20;99.90
83019;DHT22;72834;40.104;18.336;2023-11-22T12:16:07;19.20;99.90
83019;DHT22;72834;40.104;18.336;2023-11-22T12:18:45;19.20;99.90
83019;DHT22;72834;40.104;18.336;2023-11-22T12:21:12;19.30;99.90
83019;DHT22;72834;40.104;18.336;2023-11-22T12:23:42;19.40;99.90
83019;DHT22;72834;40.104;18.336;2023-11-22T12:26:16;19.40;99.90
83019;DHT22;72834;40.104;18.336;2023-11-22T12:28:47;19.30;99.90
83019;DHT22;72834;40.104;18.336;2023-11-22T12:31:14;19.20;99.90
83019;DHT22;72834;40.104;18.336;2023-11-22T12:33:42;19.10;99.90
83019;DHT22;72834;40.104;18.336;2023-11-22T12:36:10;19.00;99.90
83019;DHT22;72834;40.104;18.336;2023-11-22T12:38:41;18.90;99.90
83019;DHT22;72834;40.104;18.336;2023-11-22T12:41:07;18.80;99.90
83019;DHT22;72834;40.104;18.336;2023-11-22T12:43:34;18.70;99.90
83019;DHT22;72834;40.104;18.336;2023-11-22T12:46:02;18.70;99.90
83019;DHT22;72834;40.104;18.336;2023-11-22T12:48:29;18.90;99.90
83019;DHT22;72834;40.104;18.336;2023-11-22T12:50:58;19.00;99.90
83019;DHT22;72834;40.104;18.336;2023-11-22T12:53:25;19.10;99.90
83019;DHT22;72834;40.104;18.336;2023-11-22T12:55:55;19.10;99.90
83019;DHT22;72834;40.104;18.336;2023-11-22T12:58:25;19.10;99.90
83019;DHT22;72834;40.104;18.336;2023-11-22T13:00:53;19.00;99.90
83019;DHT22;72834;40.104;18.336;2023-11-22T13:03:27;19.00;99.90
83019;DHT22;72834;40.104;18.336;2023-11-22T13:05:56;18.90;99.90
83019;DHT22;72834;40.104;18.336;2023-11-22T13:08:23;18.80;99.90
83019;DHT22;72834;40.104;18.336;2023-11-22T13:10:55;18.80;99.90
83019;DHT22;72834;40.104;18.336;2023-11-22T13:13:24;18.70;99.90
83019;DHT22;72834;40.104;18.336;2023-11-22T13:15:51;18.60;99.90
83019;DHT22;72834;40.104;18.336;2023-11-22T13:18:18;18.60;99.90
83019;DHT22;72834;40.104;18.336;2023-11-22T13:20:45;18.60;99.90
83019;DHT22;72834;40.104;18.336;2023-11-22T13:23:12;18.70;99.90
83019;DHT22;72834;40.104;18.336;2023-11-22T13:25:40;18.70;99.90
83019;DHT22;72834;40.104;18.336;2023-11-22T13:28:10;18.70;99.90
83019;DHT22;72834;40.104;18.336;2023-11-22T13:30:37;18.80;99.90
83019;DHT22;72834;40.104;18.336;2023-11-22T13:33:03;18.80;99.90
83019;DHT22;72834;40.104;18.336;2023-11-22T13:35:30;18.80;99.90
83019;DHT22;72834;40.104;18.336;2023-11-22T13:37:58;18.70;99.90
83019;DHT22;72834;40.104;18.336;2023-11-22T13:40:25;18.70;99.90
83019;DHT22;72834;40.104;18.336;2023-11-22T13:42:56;18.70;99.90
83019;DHT22;72834;40.104;18.336;2023-11-22T13:45:23;18.70;99.90
83019;DHT22;72834;40.104;18.336;2023-11-22T13:47:51;18.70;99.90
83019;DHT22;72834;40.104;18.336;2023-11-22T13:50:27;18.70;99.90
83019;DHT22;72834;40.104;18.336;2023-11-22T13:52:55;18.60;99.90
83019;DHT22;72834;40.104;18.336;2023-11-22T13:55:22;18.60;99.90
83019;DHT22;72834;40.104;18.336;2023-11-22T13:57:50;18.60;99.90
83019;DHT22;72834;40.104;18.336;2023-11-22T14:00:18;18.50;99.90
83019;DHT22;72834;40.104;18.336;2023-11-22T14:02:46;18.50;99.90
83019;DHT22;72834;40.104;18.336;2023-11-22T14:05:13;18.40;99.90
83019;DHT22;72834;40.104;18.336;2023-11-22T14:07:42;18.40;99.90
83019;DHT22;72834;40.104;18.336;2023-11-22T14:10:09;18.40;99.90
83019;DHT22;72834;40.104;18.336;2023-11-22T14:12:37;18.40;99.90
83019;DHT22;72834;40.104;18.336;2023-11-22T14:15:04;18.40;99.90
83019;DHT22;72834;40.104;18.336;2023-11-22T14:17:32;18.40;99.90
83019;DHT22;72834;40.104;18.336;2023-11-22T14:19:59;18.40;99.90
83019;DHT22;72834;40.104;18.336;2023-11-22T14:22:26;18.40;99.90
83019;DHT22;72834;40.104;18.336;2023-11-22T14:24:54;18.30;99.90
83019;DHT22;72834;40.104;18.336;2023-11-22T14:27:21;18.30;99.90
83019;DHT22;72834;40.104;18.336;2023-11-22T14:29:48;18.30;99.90
83019;DHT22;72834;40.104;18.336;2023-11-22T14:32:17;18.30;99.90
83019;DHT22;72834;40.104;18.336;2023-11-22T14:34:45;18.20;99.90
83019;DHT22;72834;40.104;18.336;2023-11-22T14:37:12;18.20;99.90
83019;DHT22;72834;40.104;18.336;2023-11-22T14:39:39;18.20;99.90
83019;DHT22;72834;40.104;18.336;2023-11-22T14:42:06;18.10;99.90
83019;DHT22;72834;40.104;18.336;2023-11-22T14:44:34;18.10;99.90
83019;DHT22;72834;40.104;18.336;2023-11-22T14:47:02;18.10;99.90
83019;DHT22;72834;40.104;18.336;2023-11-22T14:49:33;18.10;99.90
83019;DHT22;72834;40.104;18.336;2023-11-22T14:52:00;18.00;99.90
83019;DHT22;72834;40.104;18.336;2023-11-22T14:54:27;18.00;99.90
83019;DHT22;72834;40.104;18.336;2023-11-22T14:56:54;17.90;99.90
83019;DHT22;72834;40.104;18.336;2023-11-22T14:59:23;17.90;99.90
83019;DHT22;72834;40.104;18.336;2023-11-22T15:01:49;17.90;99.90
83019;DHT22;72834;40.104;18.336;2023-11-22T15:04:16;17.90;99.90
83019;DHT22;72834;40.104;18.336;2023-11-22T15:06:42;17.90;99.90
83019;DHT22;72834;40.104;18.336;2023-11-22T15:09:11;17.80;99.90
83019;DHT22;72834;40.104;18.336;2023-11-22T15:11:44;17.80;99.90
83019;DHT22;72834;40.104;18.336;2023-11-22T15:14:11;17.80;99.90
83019;DHT22;72834;40.104;18.336;2023-11-22T15:16:37;17.70;99.90
83019;DHT22;72834;40.104;18.336;2023-11-22T15:19:04;17.60;99.90
83019;DHT22;72834;40.104;18.336;2023-11-22T15:21:33;17.60;99.90
83019;DHT22;72834;40.104;18.336;2023-11-22T15:24:00;17.60;99.90